Time;durP1;ratioP1;P1;durP2;ratioP2;P2;SDS_P1;SDS_P2;PMS_P1;PMS_P2;Temp;Humidity;BMP_temperature;BMP_pressure;BME280_temperature;BME280_humidity;BME280_pressure;Samples;Min_cycle;Max_cycle;Signal;HPM_P1;HPM_P2
2022/09/17 00:00:20;;;;;;;29.08;27.00;;;;;;;15.54;60.04;101312.34;5031697;28;20041;-76
2022/09/17 00:02:54;;;;;;;28.02;26.25;;;;;;;15.52;59.91;101323.50;5017562;28;20051;-76
2022/09/17 00:05:22;;;;;;;26.40;25.00;;;;;;;15.53;59.98;101337.94;5042928;28;20038;-76
2022/09/17 00:07:49;;;;;;;25.90;24.35;;;;;;;15.51;60.15;101337.38;5012563;28;20116;-75
2022/09/17 00:10:15;;;;;;;27.48;25.27;;;;;;;15.49;59.85;101334.09;5021137;28;20040;-76
2022/09/17 00:12:40;;;;;;;30.58;28.00;;;;;;;15.49;60.05;101325.91;5027406;28;20030;-76
2022/09/17 00:15:06;;;;;;;28.98;26.95;;;;;;;15.48;60.08;101335.19;5030689;28;20390;-75
2022/09/17 00:17:32;;;;;;;29.13;27.08;;;;;;;15.47;60.07;101334.38;5029628;28;20041;-76
2022/09/17 00:19:57;;;;;;;28.70;26.73;;;;;;;15.45;60.26;101325.63;5030748;28;20543;-75
2022/09/17 00:22:22;;;;;;;27.80;26.02;;;;;;;15.45;60.04;101330.25;5017364;28;20058;-75
2022/09/17 00:24:48;;;;;;;27.75;25.90;;;;;;;15.44;60.03;101328.59;5039258;28;20539;-76
2022/09/17 00:27:13;;;;;;;28.50;27.00;;;;;;;15.44;60.00;101325.88;5031292;28;20037;-76
2022/09/17 00:29:40;;;;;;;27.48;26.02;;;;;;;15.41;59.98;101324.50;5014413;28;20057;-76
2022/09/17 00:32:05;;;;;;;28.55;26.55;;;;;;;15.41;60.07;101321.78;5021423;28;20033;-76
2022/09/17 00:34:30;;;;;;;28.20;26.42;;;;;;;15.41;59.94;101326.41;5019496;28;20056;-76
2022/09/17 00:36:56;;;;;;;29.48;27.25;;;;;;;15.40;60.27;101328.31;5018480;28;20042;-76
2022/09/17 00:39:21;;;;;;;29.05;27.33;;;;;;;15.39;60.20;101332.09;5011969;28;20180;-76
2022/09/17 00:41:46;;;;;;;27.20;25.27;;;;;;;15.38;60.16;101327.75;5015729;28;20635;-76
2022/09/17 00:44:38;;;;;;;28.00;26.58;;;;;;;15.38;59.94;101326.94;5026723;28;20117;-76
2022/09/17 00:47:04;;;;;;;27.08;25.60;;;;;;;15.35;60.20;101334.53;5026262;28;20482;-76
2022/09/17 00:49:31;;;;;;;27.95;26.23;;;;;;;15.35;60.13;101345.44;5011246;28;20525;-78
2022/09/17 00:52:19;;;;;;;27.45;25.52;;;;;;;15.34;59.90;101349.22;5012293;28;20470;-76
2022/09/17 00:54:53;;;;;;;27.00;25.27;;;;;;;15.33;60.32;101339.41;5022474;28;20065;-75
2022/09/17 00:57:19;;;;;;;27.92;26.42;;;;;;;15.32;60.16;101342.38;5014114;28;20068;-76
2022/09/17 00:59:44;;;;;;;27.73;26.13;;;;;;;15.32;60.00;101342.38;5018415;28;20062;-76
2022/09/17 01:02:10;;;;;;;29.15;27.17;;;;;;;15.31;60.23;101346.19;5011763;28;20096;-76
2022/09/17 01:04:35;;;;;;;29.13;27.42;;;;;;;15.30;60.33;101342.66;5019428;28;20474;-75
2022/09/17 01:07:39;;;;;;;27.70;25.85;;;;;;;15.29;60.24;101340.19;5035903;28;20061;-76
2022/09/17 01:10:27;;;;;;;27.70;26.10;;;;;;;15.28;60.23;101358.44;5033760;28;20041;-76
2022/09/17 01:13:25;;;;;;;26.13;24.35;;;;;;;15.28;60.30;101355.72;5029221;28;20088;-75
2022/09/17 01:15:53;;;;;;;28.70;26.57;;;;;;;15.25;60.13;101348.06;5034478;28;20033;-77
2022/09/17 01:18:33;;;;;;;28.05;26.40;;;;;;;15.25;60.03;101336.38;5040321;28;20453;-77
2022/09/17 01:21:38;;;;;;;25.60;24.17;;;;;;;15.25;59.98;101347.25;5015512;28;20029;-77
2022/09/17 01:24:34;;;;;;;26.02;24.73;;;;;;;15.23;60.21;101343.97;5030497;28;20044;-77
2022/09/17 01:27:20;;;;;;;26.17;24.58;;;;;;;15.21;60.08;101343.41;5029836;28;20034;-76
2022/09/17 01:30:05;;;;;;;27.15;25.33;;;;;;;15.20;60.25;101352.66;5015102;28;20104;-75
2022/09/17 01:32:50;;;;;;;27.83;25.98;;;;;;;15.19;60.26;101354.53;5015117;28;20084;-75
2022/09/17 01:35:47;;;;;;;25.90;24.40;;;;;;;15.19;60.32;101345.53;5024287;28;20128;-75
2022/09/17 01:38:50;;;;;;;26.00;24.60;;;;;;;15.17;60.19;101343.09;5060838;28;20041;-78
2022/09/17 01:41:29;;;;;;;25.85;24.25;;;;;;;15.17;60.12;101354.00;5026803;28;20072;-75
2022/09/17 01:44:05;;;;;;;28.20;26.23;;;;;;;15.15;60.24;101351.50;5040282;28;20084;-76
2022/09/17 01:46:40;;;;;;;29.65;27.63;;;;;;;15.15;60.33;101358.88;5034846;28;20525;-78
2022/09/17 01:49:07;;;;;;;27.73;26.13;;;;;;;15.13;59.97;101353.66;5026230;28;20152;-77
2022/09/17 01:51:40;;;;;;;27.33;25.45;;;;;;;15.13;60.38;101356.38;5014553;28;20030;-76
2022/09/17 01:54:23;;;;;;;26.83;25.33;;;;;;;15.13;60.29;101350.94;5015089;28;20359;-77
2022/09/17 01:57:15;;;;;;;26.80;24.70;;;;;;;15.13;60.20;101345.50;5029754;28;20379;-76
2022/09/17 01:59:47;;;;;;;27.33;25.70;;;;;;;15.13;60.29;101345.50;5029408;28;20037;-76
2022/09/17 02:02:24;;;;;;;28.20;26.33;;;;;;;15.12;60.30;101348.50;5026407;28;20091;-76
2022/09/17 02:05:07;;;;;;;26.85;25.15;;;;;;;15.11;60.24;101346.84;5014761;28;20037;-77
2022/09/17 02:07:40;;;;;;;28.98;27.15;;;;;;;15.11;60.37;101353.09;5032039;28;20119;-78
2022/09/17 02:10:17;;;;;;;25.90;24.30;;;;;;;15.10;60.11;101351.47;5019624;28;20033;-75
2022/09/17 02:12:49;;;;;;;30.48;28.33;;;;;;;15.09;60.24;101349.84;5019928;28;20033;-75
2022/09/17 02:15:25;;;;;;;26.35;24.67;;;;;;;15.08;60.23;101345.47;5013988;28;20061;-75
2022/09/17 02:17:56;;;;;;;26.08;24.08;;;;;;;15.09;60.50;101341.69;5029351;28;20052;-75
2022/09/17 02:20:30;;;;;;;27.98;26.50;;;;;;;15.08;60.41;101348.19;5018058;28;20117;-78
2022/09/17 02:23:00;;;;;;;25.83;24.35;;;;;;;15.08;60.30;101353.63;5014648;28;20034;-76
2022/09/17 02:25:26;;;;;;;26.42;25.02;;;;;;;15.07;60.19;101356.63;5018715;28;20041;-76
2022/09/17 02:27:56;;;;;;;27.92;26.05;;;;;;;15.06;60.24;101349.50;5016856;28;20078;-75
2022/09/17 02:30:22;;;;;;;27.95;26.23;;;;;;;15.05;60.17;101345.97;5047680;28;20081;-75
2022/09/17 02:32:48;;;;;;;26.55;25.05;;;;;;;15.06;60.24;101354.97;5032438;28;20061;-75
2022/09/17 02:35:14;;;;;;;25.77;24.23;;;;;;;15.05;60.18;101348.69;5037365;28;20546;-77
2022/09/17 02:37:41;;;;;;;26.83;25.10;;;;;;;15.05;60.40;101347.88;5015100;28;20026;-75
2022/09/17 02:40:07;;;;;;;27.40;25.80;;;;;;;15.03;60.15;101356.28;5027097;28;20049;-75
2022/09/17 02:43:14;;;;;;;27.52;26.13;;;;;;;15.04;60.38;101354.38;5014942;28;20034;-76
2022/09/17 02:45:47;;;;;;;27.80;25.80;;;;;;;15.02;60.44;101362.81;5024848;28;20505;-76
2022/09/17 02:48:51;;;;;;;27.88;26.05;;;;;;;15.01;60.50;101361.16;5023317;28;20116;-75
2022/09/17 02:51:25;;;;;;;26.65;24.42;;;;;;;15.01;60.22;101373.94;5029636;28;20033;-75
2022/09/17 02:54:02;;;;;;;25.55;23.83;;;;;;;14.99;60.46;101367.94;5014072;28;20041;-75
2022/09/17 02:56:56;;;;;;;25.25;23.95;;;;;;;14.98;60.34;101378.00;5037045;28;20033;-75
2022/09/17 02:59:42;;;;;;;25.55;24.05;;;;;;;14.98;60.52;101379.91;5011282;28;20072;-75
2022/09/17 03:02:24;;;;;;;25.33;24.02;;;;;;;14.97;60.57;101378.25;5022648;28;20041;-75
2022/09/17 03:04:50;;;;;;;24.88;23.67;;;;;;;14.95;60.54;101378.53;5013340;28;20360;-75
2022/09/17 03:07:16;;;;;;;26.33;24.63;;;;;;;14.95;60.40;101381.25;5012314;28;20061;-75
2022/09/17 03:09:42;;;;;;;26.70;25.05;;;;;;;14.95;60.41;101377.72;5031248;28;20041;-75
2022/09/17 03:12:08;;;;;;;27.50;25.98;;;;;;;14.95;60.23;101380.44;5033080;28;20095;-77
2022/09/17 03:14:34;;;;;;;28.10;26.33;;;;;;;14.93;60.33;101381.50;5030920;28;20172;-74
2022/09/17 03:16:59;;;;;;;27.13;25.52;;;;;;;14.92;60.22;101376.31;5033365;28;21604;-75
2022/09/17 03:19:26;;;;;;;28.13;26.73;;;;;;;14.92;60.38;101377.13;5014109;28;20508;-75
2022/09/17 03:21:52;;;;;;;28.30;26.38;;;;;;;14.92;60.26;101377.13;5011124;28;20147;-77
2022/09/17 03:24:17;;;;;;;26.73;25.33;;;;;;;14.91;60.54;101367.31;5028790;28;20120;-76
2022/09/17 03:26:43;;;;;;;28.25;26.65;;;;;;;14.91;60.35;101364.59;5016644;28;20044;-75
2022/09/17 03:29:08;;;;;;;27.77;26.08;;;;;;;14.90;60.38;101357.53;5031218;28;20062;-75
2022/09/17 03:31:34;;;;;;;26.30;24.98;;;;;;;14.89;60.46;101355.91;5030974;28;20041;-75
2022/09/17 03:33:59;;;;;;;28.08;26.58;;;;;;;14.89;60.20;101357.78;5032171;28;20076;-76
2022/09/17 03:36:25;;;;;;;27.00;25.45;;;;;;;14.89;60.16;101358.63;5029191;28;20103;-78
2022/09/17 03:38:55;;;;;;;29.60;27.98;;;;;;;14.88;60.51;101348.81;5019564;28;20037;-77
2022/09/17 03:41:20;;;;;;;27.17;25.38;;;;;;;14.87;60.47;101355.31;5017102;28;20127;-75
2022/09/17 03:43:46;;;;;;;27.48;25.85;;;;;;;14.86;60.40;101356.38;5012480;28;20505;-75
2022/09/17 03:46:11;;;;;;;27.25;25.40;;;;;;;14.86;60.26;101364.53;5033857;28;20088;-75
2022/09/17 03:48:38;;;;;;;25.63;24.17;;;;;;;14.86;60.40;101361.81;5011350;28;20121;-76
2022/09/17 03:51:04;;;;;;;27.50;25.42;;;;;;;14.85;60.35;101362.09;5011793;28;20040;-77
2022/09/17 03:53:30;;;;;;;27.65;25.55;;;;;;;14.84;60.29;101366.72;5022248;28;20024;-76
2022/09/17 03:56:00;;;;;;;24.95;23.65;;;;;;;14.83;60.14;101370.50;5021926;28;20037;-75
2022/09/17 03:58:27;;;;;;;25.38;24.08;;;;;;;14.82;60.41;101368.88;5012930;28;20038;-76
2022/09/17 04:00:54;;;;;;;28.33;26.77;;;;;;;14.83;60.08;101366.97;5012057;28;20036;-75
2022/09/17 04:03:20;;;;;;;26.90;24.27;;;;;;;14.81;60.42;101359.06;5015626;28;20560;-75
2022/09/17 04:05:46;;;;;;;28.08;26.02;;;;;;;14.81;60.46;101356.34;5015024;28;20060;-75
2022/09/17 04:08:11;;;;;;;26.42;25.08;;;;;;;14.81;60.25;101363.69;5029212;28;20148;-76
2022/09/17 04:10:36;;;;;;;26.13;24.40;;;;;;;14.79;60.24;101355.78;5024003;28;20058;-77
2022/09/17 04:13:02;;;;;;;25.40;23.95;;;;;;;14.80;60.28;101359.34;5012361;28;20113;-76
2022/09/17 04:15:27;;;;;;;24.67;23.25;;;;;;;14.79;60.51;101366.69;5030245;28;20058;-76
2022/09/17 04:17:56;;;;;;;27.05;25.17;;;;;;;14.79;60.23;101365.81;5026640;28;20397;-76
2022/09/17 04:20:23;;;;;;;25.00;23.77;;;;;;;14.77;60.41;101368.81;5012563;28;20037;-75
2022/09/17 04:22:49;;;;;;;26.63;24.85;;;;;;;14.77;60.33;101370.72;5020733;28;20025;-77
2022/09/17 04:25:14;;;;;;;27.63;25.95;;;;;;;14.76;60.34;101375.31;5027014;28;20110;-75
2022/09/17 04:27:39;;;;;;;26.35;24.38;;;;;;;14.76;60.20;101382.66;5037321;28;20473;-76
2022/09/17 04:30:05;;;;;;;27.30;25.20;;;;;;;14.74;60.20;101380.22;5015753;28;20045;-75
2022/09/17 04:32:31;;;;;;;26.13;24.48;;;;;;;14.75;60.29;101378.31;5030264;28;20044;-75
2022/09/17 04:34:56;;;;;;;27.38;25.73;;;;;;;14.74;60.22;101382.09;5020139;28;20398;-75
2022/09/17 04:37:22;;;;;;;25.73;24.42;;;;;;;14.74;60.45;101384.81;5014648;28;20374;-75
2022/09/17 04:39:48;;;;;;;28.98;27.42;;;;;;;14.73;60.37;101388.63;5017981;28;20030;-75
2022/09/17 04:42:14;;;;;;;25.83;24.23;;;;;;;14.72;59.99;101385.09;5018540;28;20045;-75
2022/09/17 04:44:39;;;;;;;27.90;25.92;;;;;;;14.71;60.08;101389.69;5037077;28;20115;-75
2022/09/17 04:47:05;;;;;;;27.30;25.70;;;;;;;14.70;60.25;101382.59;5017368;28;20474;-75
2022/09/17 04:49:31;;;;;;;25.25;24.05;;;;;;;14.70;60.17;101376.34;5035598;28;20543;-74
2022/09/17 04:51:57;;;;;;;27.77;26.17;;;;;;;14.69;60.56;101377.41;5028119;28;20066;-75
2022/09/17 04:54:23;;;;;;;27.13;25.60;;;;;;;14.68;60.35;101384.75;5043191;28;20508;-78
2022/09/17 04:56:48;;;;;;;27.83;25.65;;;;;;;14.68;60.38;101381.22;5036338;28;20033;-74
2022/09/17 04:59:14;;;;;;;25.83;23.98;;;;;;;14.66;60.17;101377.94;5040159;28;20069;-75
2022/09/17 05:01:39;;;;;;;24.85;23.55;;;;;;;14.66;60.30;101381.47;5038150;28;20030;-75
2022/09/17 05:04:05;;;;;;;25.15;23.75;;;;;;;14.66;60.26;101389.63;5032391;28;20065;-75
2022/09/17 05:06:30;;;;;;;25.55;23.80;;;;;;;14.65;60.20;101390.69;5008250;28;20045;-75
2022/09/17 05:08:55;;;;;;;26.00;24.60;;;;;;;14.64;60.10;101383.63;5029579;28;20466;-78
2022/09/17 05:11:21;;;;;;;25.70;24.17;;;;;;;14.64;60.29;101388.22;5021552;28;20421;-74
2022/09/17 05:13:46;;;;;;;26.50;25.00;;;;;;;14.61;60.15;101389.56;5016799;28;20072;-75
2022/09/17 05:16:11;;;;;;;26.52;24.92;;;;;;;14.61;60.47;101397.72;5045158;28;20036;-75
2022/09/17 05:18:37;;;;;;;26.42;24.92;;;;;;;14.61;60.16;101396.91;5018345;28;20029;-75
2022/09/17 05:21:02;;;;;;;26.25;24.55;;;;;;;14.60;60.12;101398.81;5030287;28;20037;-75
2022/09/17 05:23:27;;;;;;;26.10;24.65;;;;;;;14.58;60.25;101403.66;5036680;28;20037;-75
2022/09/17 05:25:57;;;;;;;26.70;25.10;;;;;;;14.59;60.20;101401.75;5019610;28;20038;-75
2022/09/17 05:28:23;;;;;;;24.85;23.55;;;;;;;14.57;60.47;101404.75;5027307;28;20065;-75
2022/09/17 05:30:48;;;;;;;26.02;24.35;;;;;;;14.57;60.20;101407.47;5018492;28;20505;-77
2022/09/17 05:33:13;;;;;;;25.52;24.15;;;;;;;14.56;60.39;101402.28;5037146;28;20095;-76
2022/09/17 05:35:39;;;;;;;25.92;24.35;;;;;;;14.55;60.19;101401.47;5035617;28;20033;-77
2022/09/17 05:38:06;;;;;;;26.45;24.73;;;;;;;14.55;59.96;101409.63;5009844;28;20470;-76
2022/09/17 05:40:32;;;;;;;25.90;24.25;;;;;;;14.55;60.20;101404.19;5018076;28;20040;-76
2022/09/17 05:43:02;;;;;;;28.98;26.52;;;;;;;14.53;60.07;101405.47;5021817;28;20029;-76
2022/09/17 05:45:28;;;;;;;25.58;23.77;;;;;;;14.53;60.54;101419.91;5023885;28;20148;-77
2022/09/17 05:47:58;;;;;;;28.15;26.35;;;;;;;14.53;60.25;101413.63;5020170;28;20038;-77
2022/09/17 05:50:24;;;;;;;26.88;25.27;;;;;;;14.52;60.48;101418.25;5016891;28;20042;-77
2022/09/17 05:52:50;;;;;;;26.77;25.17;;;;;;;14.53;60.07;101429.94;5040788;28;20029;-76
2022/09/17 05:55:17;;;;;;;26.23;24.75;;;;;;;14.49;60.19;101435.88;5018356;28;20038;-77
2022/09/17 05:57:42;;;;;;;25.52;24.30;;;;;;;14.50;60.26;101432.09;5022897;28;20026;-76
2022/09/17 06:00:09;;;;;;;25.48;24.08;;;;;;;14.49;60.07;101425.00;5032728;28;20042;-75
2022/09/17 06:02:34;;;;;;;25.35;23.77;;;;;;;14.47;60.15;101426.34;5017462;28;20116;-75
2022/09/17 06:05:01;;;;;;;26.35;24.70;;;;;;;14.47;60.36;101438.03;5016006;28;20195;-75
2022/09/17 06:07:27;;;;;;;25.30;23.15;;;;;;;14.47;60.27;101434.50;5021831;28;20033;-75
2022/09/17 06:09:52;;;;;;;25.70;24.30;;;;;;;14.46;60.49;101436.41;5038508;28;20041;-75
2022/09/17 06:12:17;;;;;;;24.67;23.30;;;;;;;14.46;60.39;101443.72;5014422;28;20026;-75
2022/09/17 06:14:43;;;;;;;23.92;22.67;;;;;;;14.45;60.16;101434.75;5030697;28;20042;-76
2022/09/17 06:17:08;;;;;;;24.95;23.15;;;;;;;14.44;60.09;101438.53;5033204;28;20135;-75
2022/09/17 06:19:34;;;;;;;24.42;23.02;;;;;;;14.44;60.51;101446.69;5015422;28;20064;-79
2022/09/17 06:21:59;;;;;;;26.17;24.35;;;;;;;14.44;60.36;101443.97;5032377;28;20046;-75
2022/09/17 06:24:24;;;;;;;26.75;25.00;;;;;;;14.44;60.59;101448.59;5034319;28;20037;-78
2022/09/17 06:26:53;;;;;;;25.77;23.90;;;;;;;14.43;60.32;101446.94;5015888;28;20116;-76
2022/09/17 06:29:19;;;;;;;26.88;25.17;;;;;;;14.43;60.23;101449.66;5026231;28;20049;-75
2022/09/17 06:31:47;;;;;;;25.55;24.08;;;;;;;14.42;60.17;101453.47;5026891;28;20050;-77
2022/09/17 06:34:13;;;;;;;25.27;23.83;;;;;;;14.41;60.19;101451.78;5026493;28;20389;-78
2022/09/17 06:36:38;;;;;;;25.75;24.38;;;;;;;14.42;60.43;101456.19;5034449;28;20296;-78
2022/09/17 06:39:03;;;;;;;25.85;24.45;;;;;;;14.41;60.44;101471.66;5031920;28;20068;-77
2022/09/17 06:41:29;;;;;;;23.92;22.17;;;;;;;14.40;60.36;101475.44;5015687;28;20037;-78
2022/09/17 06:43:54;;;;;;;25.50;24.05;;;;;;;14.40;60.03;101467.28;5032518;28;20060;-76
2022/09/17 06:46:20;;;;;;;24.67;23.17;;;;;;;14.39;60.38;101462.94;5021693;28;20033;-78
2022/09/17 06:48:45;;;;;;;25.55;23.85;;;;;;;14.39;60.70;101462.94;5033019;28;20474;-77
2022/09/17 06:51:13;;;;;;;25.73;24.00;;;;;;;14.38;60.56;101452.31;5038159;28;20120;-77
2022/09/17 06:53:39;;;;;;;28.25;25.95;;;;;;;14.38;60.47;101446.88;5033167;28;20533;-76
2022/09/17 06:56:07;;;;;;;25.85;24.38;;;;;;;14.38;60.39;101452.31;5034643;28;20037;-76
2022/09/17 06:58:35;;;;;;;24.23;22.83;;;;;;;14.38;60.63;101452.31;5042835;28;20041;-76
2022/09/17 07:01:02;;;;;;;26.00;24.33;;;;;;;14.39;60.73;101448.50;5031845;28;20068;-77
2022/09/17 07:03:29;;;;;;;25.33;23.92;;;;;;;14.38;60.52;101453.13;5020614;28;20051;-76
2022/09/17 07:05:54;;;;;;;25.95;24.35;;;;;;;14.38;60.60;101450.41;5032818;28;20057;-76
2022/09/17 07:08:19;;;;;;;27.77;25.58;;;;;;;14.37;60.71;101459.63;5017272;28;20462;-77
2022/09/17 07:10:45;;;;;;;25.23;23.70;;;;;;;14.37;60.53;101462.34;5032959;28;21384;-77
2022/09/17 07:13:10;;;;;;;24.80;23.50;;;;;;;14.38;60.61;101482.19;5038335;28;20033;-76
2022/09/17 07:15:35;;;;;;;26.05;23.98;;;;;;;14.37;60.40;101499.59;5031814;28;20615;-77
2022/09/17 07:18:10;;;;;;;27.60;24.75;;;;;;;14.38;60.82;101498.50;5045321;28;20048;-76
2022/09/17 07:20:36;;;;;;;26.02;24.25;;;;;;;14.37;60.83;101488.72;5017952;28;20172;-77
2022/09/17 07:23:01;;;;;;;26.00;24.40;;;;;;;14.35;60.82;101478.09;5012056;28;20037;-76
2022/09/17 07:25:27;;;;;;;24.63;22.55;;;;;;;14.35;60.56;101472.66;5011968;28;20195;-76
2022/09/17 07:27:53;;;;;;;25.83;23.98;;;;;;;14.36;60.61;101468.03;5047047;28;20044;-75
2022/09/17 07:30:19;;;;;;;24.77;23.38;;;;;;;14.35;60.78;101461.78;5032428;28;20050;-77
2022/09/17 07:32:45;;;;;;;25.30;23.52;;;;;;;14.34;60.82;101452.00;5013202;28;20053;-76
2022/09/17 07:35:11;;;;;;;26.00;24.40;;;;;;;14.35;61.02;101456.34;5021669;28;20048;-76
2022/09/17 07:37:36;;;;;;;26.13;24.73;;;;;;;14.35;60.98;101463.69;5017769;28;20473;-76
2022/09/17 07:40:04;;;;;;;25.95;24.10;;;;;;;14.35;60.84;101461.78;5034281;28;20033;-77
2022/09/17 07:42:31;;;;;;;24.08;22.85;;;;;;;14.35;60.86;101467.22;5033695;28;20086;-78
2022/09/17 07:44:57;;;;;;;26.00;24.48;;;;;;;14.36;60.80;101470.75;5024829;28;20029;-78
2022/09/17 07:47:22;;;;;;;24.30;22.77;;;;;;;14.36;60.91;101478.91;5013157;28;20034;-77
2022/09/17 07:49:48;;;;;;;22.67;21.45;;;;;;;14.37;60.87;101464.25;5022385;28;20123;-74
2022/09/17 07:52:13;;;;;;;25.88;24.20;;;;;;;14.37;60.75;101461.53;5011492;28;20044;-75
2022/09/17 07:54:38;;;;;;;24.25;22.75;;;;;;;14.38;60.86;101458.56;5012925;28;20488;-75
2022/09/17 07:57:04;;;;;;;26.45;24.45;;;;;;;14.38;60.79;101460.47;5011070;28;20045;-76
2022/09/17 07:59:29;;;;;;;24.88;23.35;;;;;;;14.37;60.84;101462.34;5033327;28;20040;-76
2022/09/17 08:01:54;;;;;;;25.80;24.30;;;;;;;14.38;61.15;101460.47;5016456;28;20041;-76
2022/09/17 08:04:20;;;;;;;24.75;23.45;;;;;;;14.38;60.90;101455.84;5017890;28;20068;-75
2022/09/17 08:06:49;;;;;;;23.85;22.55;;;;;;;14.39;60.77;101453.94;5016654;28;20436;-76
2022/09/17 08:09:15;;;;;;;25.15;23.63;;;;;;;14.39;60.95;101464.81;5028917;28;20025;-75
2022/09/17 08:11:42;;;;;;;25.00;23.08;;;;;;;14.41;60.91;101457.22;5032159;28;20076;-76
2022/09/17 08:14:12;;;;;;;29.00;23.65;;;;;;;14.41;60.86;101454.50;5020209;28;20037;-76
2022/09/17 08:16:38;;;;;;;24.45;23.05;;;;;;;14.41;61.14;101459.94;5012547;28;20037;-75
2022/09/17 08:19:04;;;;;;;25.35;23.73;;;;;;;14.43;60.79;101471.41;5021281;28;21238;-75
2022/09/17 08:21:29;;;;;;;26.00;24.50;;;;;;;14.44;61.56;101470.34;5030442;28;20121;-75
2022/09/17 08:23:54;;;;;;;25.45;24.00;;;;;;;14.44;61.05;101473.88;5031022;28;20037;-78
2022/09/17 08:26:22;;;;;;;24.58;23.17;;;;;;;14.46;60.75;101473.59;5030137;28;20039;-75
2022/09/17 08:28:49;;;;;;;25.05;23.63;;;;;;;14.46;60.72;101463.59;5019618;28;20029;-76
2022/09/17 08:31:17;;;;;;;25.38;23.88;;;;;;;14.47;60.65;101464.41;5026583;28;20044;-76
2022/09/17 08:33:43;;;;;;;25.25;23.50;;;;;;;14.47;60.85;101473.38;5033727;28;20024;-76
2022/09/17 08:36:11;;;;;;;27.40;25.80;;;;;;;14.50;60.77;101480.19;5015328;28;20036;-76
2022/09/17 08:38:37;;;;;;;26.27;24.23;;;;;;;14.50;61.14;101478.28;5032008;28;20032;-76
2022/09/17 08:41:44;;;;;;;26.10;24.23;;;;;;;14.51;60.94;101481.84;5026068;28;20026;-76
2022/09/17 08:44:21;;;;;;;24.92;23.52;;;;;;;14.52;60.73;101474.53;5011682;28;20088;-78
2022/09/17 08:47:17;;;;;;;23.17;22.05;;;;;;;14.53;60.83;101473.44;5029727;28;20038;-79
2022/09/17 08:49:53;;;;;;;23.88;22.33;;;;;;;14.53;60.96;101463.41;5056262;28;20168;-76
2022/09/17 08:52:37;;;;;;;25.65;24.15;;;;;;;14.55;61.05;101471.34;5023136;28;20033;-76
2022/09/17 08:55:30;;;;;;;24.25;22.83;;;;;;;14.55;60.94;101466.72;5029753;28;20034;-76
2022/09/17 08:58:21;;;;;;;24.15;22.85;;;;;;;14.55;60.78;101468.59;5010769;28;20033;-76
2022/09/17 09:00:57;;;;;;;24.25;22.95;;;;;;;14.55;60.86;101466.72;5013698;28;20473;-76
2022/09/17 09:03:41;;;;;;;24.17;22.52;;;;;;;14.56;61.10;101468.34;5038410;28;20390;-76
2022/09/17 09:06:07;;;;;;;25.10;23.73;;;;;;;14.57;60.93;101469.19;5010631;28;20085;-75
2022/09/17 09:08:44;;;;;;;25.00;23.70;;;;;;;14.58;61.30;101473.53;5012646;28;20042;-76
2022/09/17 09:11:17;;;;;;;26.83;24.92;;;;;;;14.59;61.28;101475.16;5026918;28;20032;-75
2022/09/17 09:14:08;;;;;;;24.85;23.65;;;;;;;14.61;61.21;101481.19;5033490;28;20036;-75
2022/09/17 09:16:39;;;;;;;25.08;23.55;;;;;;;14.63;61.30;101471.69;5022281;28;20049;-78
2022/09/17 09:19:18;;;;;;;26.58;24.63;;;;;;;14.66;61.16;101476.63;5012979;28;20116;-76
2022/09/17 09:21:56;;;;;;;26.35;24.85;;;;;;;14.69;61.25;101475.31;5011940;28;20108;-76
2022/09/17 09:24:25;;;;;;;24.67;22.95;;;;;;;14.70;61.30;101472.34;5029179;28;20071;-75
2022/09/17 09:27:15;;;;;;;23.88;22.67;;;;;;;14.73;61.37;101483.78;5017676;28;20128;-76
2022/09/17 09:29:52;;;;;;;24.77;23.58;;;;;;;14.76;61.67;101483.28;5028688;28;20053;-77
2022/09/17 09:32:26;;;;;;;25.35;24.00;;;;;;;14.76;61.76;101486.81;5034523;28;20029;-77
2022/09/17 09:34:54;;;;;;;24.13;22.45;;;;;;;14.80;61.68;101481.72;5039398;28;20455;-78
2022/09/17 09:37:26;;;;;;;26.73;24.70;;;;;;;14.81;61.64;101486.06;5014968;28;20033;-77
2022/09/17 09:39:56;;;;;;;25.10;23.80;;;;;;;14.84;61.58;101491.00;5021063;28;20034;-78
2022/09/17 09:42:27;;;;;;;25.88;24.25;;;;;;;14.86;61.86;101494.28;5026137;28;20124;-77
2022/09/17 09:44:55;;;;;;;25.48;24.27;;;;;;;14.88;61.60;101479.34;5029575;28;20474;-77
2022/09/17 09:47:31;;;;;;;26.52;24.92;;;;;;;14.91;61.66;101481.56;5020254;28;20116;-78
2022/09/17 09:50:06;;;;;;;25.00;23.42;;;;;;;14.95;61.92;101494.69;5034209;28;20026;-78
2022/09/17 09:52:47;;;;;;;24.58;23.33;;;;;;;14.96;62.02;101496.31;5035088;28;20103;-78
2022/09/17 09:55:34;;;;;;;26.05;24.65;;;;;;;14.98;61.64;101488.72;5035863;28;20049;-78
2022/09/17 09:58:23;;;;;;;24.45;23.23;;;;;;;15.01;61.80;101488.22;5034271;28;20142;-78
2022/09/17 10:00:50;;;;;;;27.67;25.95;;;;;;;15.03;61.47;101481.44;5014761;28;20041;-78
2022/09/17 10:03:19;;;;;;;26.70;25.20;;;;;;;15.06;61.67;101491.00;5031305;28;20060;-79
2022/09/17 10:06:12;;;;;;;25.30;24.08;;;;;;;15.08;61.32;101475.25;5039378;28;20052;-78
2022/09/17 10:08:41;;;;;;;25.58;24.20;;;;;;;15.11;61.33;101480.16;5034507;28;20045;-78
2022/09/17 10:11:12;;;;;;;;;;;;;;;15.12;61.44;101482.66;5033959;28;20034;-77
2022/09/17 10:13:39;;;;;;;25.48;24.02;;;;;;;15.14;61.11;101474.22;5064415;28;19913;-76
2022/09/17 10:16:25;;;;;;;27.45;26.05;;;;;;;15.18;61.07;101485.44;5030596;28;20042;-79
2022/09/17 10:19:18;;;;;;;25.35;23.73;;;;;;;15.20;60.94;101480.56;5032800;28;20078;-80
2022/09/17 10:21:44;;;;;;;26.48;24.88;;;;;;;15.22;60.86;101470.22;5034035;28;20508;-77
2022/09/17 10:24:31;;;;;;;26.40;25.10;;;;;;;15.24;61.34;101479.75;5039414;28;20042;-77
2022/09/17 10:27:02;;;;;;;26.60;25.30;;;;;;;15.26;61.35;101480.34;5025805;28;20478;-76
2022/09/17 10:29:28;;;;;;;24.75;23.55;;;;;;;15.30;61.30;101480.66;5012829;28;20065;-76
2022/09/17 10:31:56;;;;;;;27.52;26.23;;;;;;;15.34;61.35;101476.34;5011567;28;20077;-78
2022/09/17 10:34:26;;;;;;;26.48;25.08;;;;;;;15.35;61.12;101472.56;5040818;28;20038;-76
2022/09/17 10:36:54;;;;;;;25.48;24.27;;;;;;;15.37;61.10;101478.53;5033864;28;20091;-77
2022/09/17 10:39:26;;;;;;;26.88;25.42;;;;;;;15.41;60.86;101487.84;5028287;28;20478;-78
2022/09/17 10:41:56;;;;;;;26.52;24.95;;;;;;;15.46;61.17;101481.63;5019478;28;20032;-76
2022/09/17 10:44:23;;;;;;;27.13;25.45;;;;;;;15.46;61.11;101490.63;5018632;28;20030;-77
2022/09/17 10:46:50;;;;;;;27.15;25.48;;;;;;;15.50;61.04;101515.44;5037210;28;20576;-78
2022/09/17 10:49:34;;;;;;;27.60;25.85;;;;;;;15.49;61.54;101533.66;5020487;28;20037;-79
2022/09/17 10:52:24;;;;;;;26.58;24.77;;;;;;;15.52;61.50;101500.50;5014022;28;20025;-76
2022/09/17 10:54:49;;;;;;;28.00;26.45;;;;;;;15.54;61.49;101490.16;5024259;28;20390;-76
2022/09/17 10:57:30;;;;;;;27.70;26.13;;;;;;;15.57;61.47;101483.34;5015248;28;20033;-75
2022/09/17 11:00:09;;;;;;;28.40;27.00;;;;;;;15.59;61.34;101487.47;5013946;28;20034;-75
2022/09/17 11:02:44;;;;;;;27.67;25.88;;;;;;;15.61;61.26;101489.94;5033525;28;20111;-75
2022/09/17 11:05:40;;;;;;;26.58;25.27;;;;;;;15.63;61.44;101485.06;5031081;28;20025;-75
2022/09/17 11:08:33;;;;;;;26.40;24.80;;;;;;;15.65;61.68;101487.50;5028429;28;20044;-75
2022/09/17 11:11:09;;;;;;;27.50;26.15;;;;;;;15.67;61.35;101488.09;5018258;28;20479;-75
2022/09/17 11:13:58;;;;;;;27.40;26.00;;;;;;;15.71;61.51;101478.34;5032744;28;20060;-75
2022/09/17 11:16:35;;;;;;;28.08;26.55;;;;;;;15.72;61.33;101477.25;5019455;28;20037;-76
2022/09/17 11:19:10;;;;;;;29.23;27.58;;;;;;;15.74;61.46;101489.53;5019689;28;20045;-76
2022/09/17 11:21:35;;;;;;;27.67;25.88;;;;;;;15.75;61.45;101476.78;5032051;28;20436;-76
2022/09/17 11:24:17;;;;;;;29.13;27.52;;;;;;;15.76;61.84;101464.78;5012706;28;20142;-75
2022/09/17 11:26:56;;;;;;;28.48;27.08;;;;;;;15.78;61.66;101462.63;5012904;28;20371;-76